sensor_id;sensor_type;location;lat;lon;timestamp;P1;durP1;ratioP1;P2;durP2;ratioP2
47429;SDS011;33181;49.246;7.372;2022-08-14T00:01:20;5.80;;;5.20;;
47429;SDS011;33181;49.246;7.372;2022-08-14T00:03:46;5.70;;;5.20;;
47429;SDS011;33181;49.246;7.372;2022-08-14T00:06:12;5.70;;;5.20;;
47429;SDS011;33181;49.246;7.372;2022-08-14T00:08:38;5.70;;;5.20;;
47429;SDS011;33181;49.246;7.372;2022-08-14T00:11:03;11.13;;;5.40;;
47429;SDS011;33181;49.246;7.372;2022-08-14T00:13:29;5.60;;;5.10;;
47429;SDS011;33181;49.246;7.372;2022-08-14T00:15:56;5.70;;;5.20;;
47429;SDS011;33181;49.246;7.372;2022-08-14T00:18:24;5.80;;;5.30;;
47429;SDS011;33181;49.246;7.372;2022-08-14T00:20:53;5.80;;;5.30;;
47429;SDS011;33181;49.246;7.372;2022-08-14T00:23:21;6.10;;;5.50;;
47429;SDS011;33181;49.246;7.372;2022-08-14T00:25:48;6.20;;;5.10;;
47429;SDS011;33181;49.246;7.372;2022-08-14T00:28:17;5.67;;;5.10;;
47429;SDS011;33181;49.246;7.372;2022-08-14T00:30:45;6.37;;;5.77;;
47429;SDS011;33181;49.246;7.372;2022-08-14T00:33:11;6.70;;;5.50;;
47429;SDS011;33181;49.246;7.372;2022-08-14T00:35:37;6.30;;;5.70;;
47429;SDS011;33181;49.246;7.372;2022-08-14T00:38:03;6.83;;;6.17;;
47429;SDS011;33181;49.246;7.372;2022-08-14T00:40:29;6.20;;;5.60;;
47429;SDS011;33181;49.246;7.372;2022-08-14T00:42:55;5.97;;;5.47;;
47429;SDS011;33181;49.246;7.372;2022-08-14T00:45:20;7.03;;;5.50;;
47429;SDS011;33181;49.246;7.372;2022-08-14T00:47:47;7.47;;;5.40;;
47429;SDS011;33181;49.246;7.372;2022-08-14T00:50:15;5.83;;;5.10;;
47429;SDS011;33181;49.246;7.372;2022-08-14T00:52:47;6.80;;;5.40;;
47429;SDS011;33181;49.246;7.372;2022-08-14T00:55:16;6.07;;;5.53;;
47429;SDS011;33181;49.246;7.372;2022-08-14T00:57:44;8.67;;;5.60;;
47429;SDS011;33181;49.246;7.372;2022-08-14T01:00:30;6.60;;;6.00;;
47429;SDS011;33181;49.246;7.372;2022-08-14T01:02:58;6.13;;;5.53;;
47429;SDS011;33181;49.246;7.372;2022-08-14T01:05:24;6.57;;;5.50;;
47429;SDS011;33181;49.246;7.372;2022-08-14T01:07:50;6.07;;;5.47;;
47429;SDS011;33181;49.246;7.372;2022-08-14T01:10:18;12.63;;;5.80;;
47429;SDS011;33181;49.246;7.372;2022-08-14T01:12:45;7.07;;;5.43;;
47429;SDS011;33181;49.246;7.372;2022-08-14T01:15:15;6.27;;;5.63;;
47429;SDS011;33181;49.246;7.372;2022-08-14T01:17:45;5.67;;;5.17;;
47429;SDS011;33181;49.246;7.372;2022-08-14T01:20:29;8.00;;;5.50;;
47429;SDS011;33181;49.246;7.372;2022-08-14T01:23:15;6.13;;;5.50;;
47429;SDS011;33181;49.246;7.372;2022-08-14T01:25:40;8.23;;;5.97;;
47429;SDS011;33181;49.246;7.372;2022-08-14T01:28:07;6.03;;;5.53;;
47429;SDS011;33181;49.246;7.372;2022-08-14T01:30:33;6.07;;;5.57;;
47429;SDS011;33181;49.246;7.372;2022-08-14T01:33:02;6.37;;;5.23;;
47429;SDS011;33181;49.246;7.372;2022-08-14T01:35:29;5.40;;;4.90;;
47429;SDS011;33181;49.246;7.372;2022-08-14T01:37:55;5.13;;;4.63;;
47429;SDS011;33181;49.246;7.372;2022-08-14T01:40:22;6.50;;;5.90;;
47429;SDS011;33181;49.246;7.372;2022-08-14T01:42:49;6.33;;;5.73;;
47429;SDS011;33181;49.246;7.372;2022-08-14T01:45:15;6.30;;;5.67;;
47429;SDS011;33181;49.246;7.372;2022-08-14T01:47:41;6.63;;;5.93;;
47429;SDS011;33181;49.246;7.372;2022-08-14T01:50:07;6.57;;;5.87;;
47429;SDS011;33181;49.246;7.372;2022-08-14T01:52:35;6.73;;;6.10;;
47429;SDS011;33181;49.246;7.372;2022-08-14T01:55:03;6.53;;;5.93;;
47429;SDS011;33181;49.246;7.372;2022-08-14T01:57:34;6.23;;;5.63;;
47429;SDS011;33181;49.246;7.372;2022-08-14T02:00:06;6.40;;;5.37;;
47429;SDS011;33181;49.246;7.372;2022-08-14T02:02:39;5.80;;;5.30;;
47429;SDS011;33181;49.246;7.372;2022-08-14T02:05:04;7.10;;;6.40;;
47429;SDS011;33181;49.246;7.372;2022-08-14T02:07:35;7.00;;;6.30;;
47429;SDS011;33181;49.246;7.372;2022-08-14T02:10:02;6.57;;;5.97;;
47429;SDS011;33181;49.246;7.372;2022-08-14T02:12:29;12.63;;;6.13;;
47429;SDS011;33181;49.246;7.372;2022-08-14T02:14:55;6.63;;;5.77;;
47429;SDS011;33181;49.246;7.372;2022-08-14T02:17:20;6.10;;;5.60;;
47429;SDS011;33181;49.246;7.372;2022-08-14T02:19:47;6.40;;;5.80;;
47429;SDS011;33181;49.246;7.372;2022-08-14T02:22:14;7.17;;;6.07;;
47429;SDS011;33181;49.246;7.372;2022-08-14T02:24:42;9.30;;;6.40;;
47429;SDS011;33181;49.246;7.372;2022-08-14T02:27:08;7.20;;;6.50;;
47429;SDS011;33181;49.246;7.372;2022-08-14T02:29:35;7.37;;;6.50;;
47429;SDS011;33181;49.246;7.372;2022-08-14T02:32:02;7.20;;;6.10;;
47429;SDS011;33181;49.246;7.372;2022-08-14T02:34:30;9.03;;;6.13;;
47429;SDS011;33181;49.246;7.372;2022-08-14T02:37:00;6.87;;;6.27;;
47429;SDS011;33181;49.246;7.372;2022-08-14T02:39:37;6.30;;;5.70;;
47429;SDS011;33181;49.246;7.372;2022-08-14T02:42:08;6.90;;;6.30;;
47429;SDS011;33181;49.246;7.372;2022-08-14T02:44:40;6.67;;;6.00;;
47429;SDS011;33181;49.246;7.372;2022-08-14T02:47:07;7.10;;;6.40;;
47429;SDS011;33181;49.246;7.372;2022-08-14T02:49:34;7.00;;;6.40;;
47429;SDS011;33181;49.246;7.372;2022-08-14T02:52:01;10.10;;;6.23;;
47429;SDS011;33181;49.246;7.372;2022-08-14T02:54:31;7.67;;;6.20;;
47429;SDS011;33181;49.246;7.372;2022-08-14T02:56:58;6.50;;;5.90;;
47429;SDS011;33181;49.246;7.372;2022-08-14T02:59:31;7.80;;;6.40;;
47429;SDS011;33181;49.246;7.372;2022-08-14T03:01:59;7.07;;;6.37;;
47429;SDS011;33181;49.246;7.372;2022-08-14T03:04:27;7.47;;;6.77;;
47429;SDS011;33181;49.246;7.372;2022-08-14T03:06:54;7.10;;;6.27;;
47429;SDS011;33181;49.246;7.372;2022-08-14T03:09:21;7.20;;;6.50;;
47429;SDS011;33181;49.246;7.372;2022-08-14T03:11:47;6.67;;;6.07;;
47429;SDS011;33181;49.246;7.372;2022-08-14T03:14:14;6.90;;;6.30;;
47429;SDS011;33181;49.246;7.372;2022-08-14T03:16:40;7.33;;;6.63;;
47429;SDS011;33181;49.246;7.372;2022-08-14T03:19:07;7.27;;;6.63;;
47429;SDS011;33181;49.246;7.372;2022-08-14T03:21:33;6.90;;;6.30;;
47429;SDS011;33181;49.246;7.372;2022-08-14T03:24:01;7.00;;;6.30;;
47429;SDS011;33181;49.246;7.372;2022-08-14T03:26:38;6.93;;;6.30;;
47429;SDS011;33181;49.246;7.372;2022-08-14T03:29:09;7.10;;;6.40;;
47429;SDS011;33181;49.246;7.372;2022-08-14T03:31:40;6.67;;;6.07;;
47429;SDS011;33181;49.246;7.372;2022-08-14T03:34:06;7.00;;;6.40;;
47429;SDS011;33181;49.246;7.372;2022-08-14T03:36:34;6.80;;;6.20;;
47429;SDS011;33181;49.246;7.372;2022-08-14T03:39:04;7.20;;;6.50;;
47429;SDS011;33181;49.246;7.372;2022-08-14T03:41:33;9.90;;;6.37;;
47429;SDS011;33181;49.246;7.372;2022-08-14T03:44:00;10.00;;;6.97;;
47429;SDS011;33181;49.246;7.372;2022-08-14T03:46:33;9.30;;;6.07;;
47429;SDS011;33181;49.246;7.372;2022-08-14T03:49:01;7.33;;;6.63;;
47429;SDS011;33181;49.246;7.372;2022-08-14T03:51:29;6.10;;;5.50;;
47429;SDS011;33181;49.246;7.372;2022-08-14T03:53:59;7.70;;;6.90;;
47429;SDS011;33181;49.246;7.372;2022-08-14T03:56:27;10.03;;;6.67;;
47429;SDS011;33181;49.246;7.372;2022-08-14T03:58:55;8.67;;;6.43;;
47429;SDS011;33181;49.246;7.372;2022-08-14T04:01:23;7.13;;;6.40;;
47429;SDS011;33181;49.246;7.372;2022-08-14T04:03:52;6.50;;;5.90;;
47429;SDS011;33181;49.246;7.372;2022-08-14T04:06:22;8.50;;;6.60;;
47429;SDS011;33181;49.246;7.372;2022-08-14T04:08:48;7.10;;;6.50;;
47429;SDS011;33181;49.246;7.372;2022-08-14T04:11:15;7.13;;;6.43;;
47429;SDS011;33181;49.246;7.372;2022-08-14T04:13:42;7.30;;;6.57;;
47429;SDS011;33181;49.246;7.372;2022-08-14T04:16:15;6.73;;;6.03;;
47429;SDS011;33181;49.246;7.372;2022-08-14T04:18:48;7.07;;;6.37;;
47429;SDS011;33181;49.246;7.372;2022-08-14T04:21:17;7.37;;;6.67;;
47429;SDS011;33181;49.246;7.372;2022-08-14T04:23:47;7.13;;;6.43;;
47429;SDS011;33181;49.246;7.372;2022-08-14T04:26:13;6.33;;;5.73;;
47429;SDS011;33181;49.246;7.372;2022-08-14T04:28:42;6.90;;;6.20;;
47429;SDS011;33181;49.246;7.372;2022-08-14T04:31:09;6.70;;;6.10;;
47429;SDS011;33181;49.246;7.372;2022-08-14T04:33:35;7.60;;;6.80;;
47429;SDS011;33181;49.246;7.372;2022-08-14T04:36:01;7.20;;;6.10;;
47429;SDS011;33181;49.246;7.372;2022-08-14T04:38:27;6.53;;;5.93;;
47429;SDS011;33181;49.246;7.372;2022-08-14T04:41:12;6.93;;;6.33;;
47429;SDS011;33181;49.246;7.372;2022-08-14T04:43:56;6.50;;;5.90;;
47429;SDS011;33181;49.246;7.372;2022-08-14T04:46:22;6.93;;;6.00;;
47429;SDS011;33181;49.246;7.372;2022-08-14T04:48:52;7.10;;;5.87;;
47429;SDS011;33181;49.246;7.372;2022-08-14T04:51:19;7.03;;;6.27;;
47429;SDS011;33181;49.246;7.372;2022-08-14T04:53:51;6.83;;;6.20;;
47429;SDS011;33181;49.246;7.372;2022-08-14T04:56:21;7.07;;;6.37;;
47429;SDS011;33181;49.246;7.372;2022-08-14T04:58:49;8.73;;;6.57;;
47429;SDS011;33181;49.246;7.372;2022-08-14T05:01:21;6.53;;;5.93;;
47429;SDS011;33181;49.246;7.372;2022-08-14T05:03:49;6.53;;;5.93;;
47429;SDS011;33181;49.246;7.372;2022-08-14T05:06:15;8.27;;;6.70;;
47429;SDS011;33181;49.246;7.372;2022-08-14T05:08:42;7.03;;;6.33;;
47429;SDS011;33181;49.246;7.372;2022-08-14T05:11:08;7.60;;;6.33;;
47429;SDS011;33181;49.246;7.372;2022-08-14T05:13:35;6.60;;;6.00;;
47429;SDS011;33181;49.246;7.372;2022-08-14T05:16:01;7.37;;;6.60;;
47429;SDS011;33181;49.246;7.372;2022-08-14T05:18:30;6.87;;;5.90;;
47429;SDS011;33181;49.246;7.372;2022-08-14T05:21:00;6.03;;;5.43;;
47429;SDS011;33181;49.246;7.372;2022-08-14T05:23:30;8.60;;;5.60;;
47429;SDS011;33181;49.246;7.372;2022-08-14T05:25:59;9.70;;;5.47;;
47429;SDS011;33181;49.246;7.372;2022-08-14T05:28:28;6.63;;;5.50;;
47429;SDS011;33181;49.246;7.372;2022-08-14T05:31:00;6.30;;;5.70;;
47429;SDS011;33181;49.246;7.372;2022-08-14T05:33:32;6.10;;;5.60;;
47429;SDS011;33181;49.246;7.372;2022-08-14T05:36:01;6.10;;;5.50;;
47429;SDS011;33181;49.246;7.372;2022-08-14T05:38:31;6.83;;;5.87;;
47429;SDS011;33181;49.246;7.372;2022-08-14T05:41:06;6.20;;;5.60;;
47429;SDS011;33181;49.246;7.372;2022-08-14T05:43:39;6.20;;;5.70;;
47429;SDS011;33181;49.246;7.372;2022-08-14T05:46:08;5.93;;;5.30;;
47429;SDS011;33181;49.246;7.372;2022-08-14T05:48:39;6.20;;;5.60;;
47429;SDS011;33181;49.246;7.372;2022-08-14T05:51:05;6.23;;;5.63;;
47429;SDS011;33181;49.246;7.372;2022-08-14T05:53:31;6.00;;;5.50;;
47429;SDS011;33181;49.246;7.372;2022-08-14T05:55:57;6.40;;;5.90;;
47429;SDS011;33181;49.246;7.372;2022-08-14T05:58:23;6.20;;;5.60;;
47429;SDS011;33181;49.246;7.372;2022-08-14T06:00:50;6.57;;;5.47;;
47429;SDS011;33181;49.246;7.372;2022-08-14T06:03:18;6.43;;;5.63;;
47429;SDS011;33181;49.246;7.372;2022-08-14T06:05:47;7.53;;;5.87;;
47429;SDS011;33181;49.246;7.372;2022-08-14T06:10:53;6.43;;;5.83;;
47429;SDS011;33181;49.246;7.372;2022-08-14T06:13:34;7.90;;;6.30;;
47429;SDS011;33181;49.246;7.372;2022-08-14T06:16:03;6.23;;;5.60;;
47429;SDS011;33181;49.246;7.372;2022-08-14T06:18:29;5.50;;;5.00;;
47429;SDS011;33181;49.246;7.372;2022-08-14T06:20:57;6.47;;;5.50;;
47429;SDS011;33181;49.246;7.372;2022-08-14T06:23:23;6.03;;;5.53;;
47429;SDS011;33181;49.246;7.372;2022-08-14T06:25:49;7.63;;;5.73;;
47429;SDS011;33181;49.246;7.372;2022-08-14T06:28:22;6.40;;;5.90;;
47429;SDS011;33181;49.246;7.372;2022-08-14T06:30:50;6.70;;;6.10;;
47429;SDS011;33181;49.246;7.372;2022-08-14T06:33:16;6.20;;;5.60;;
47429;SDS011;33181;49.246;7.372;2022-08-14T06:35:44;6.90;;;6.30;;
47429;SDS011;33181;49.246;7.372;2022-08-14T06:38:15;7.03;;;6.43;;
47429;SDS011;33181;49.246;7.372;2022-08-14T06:40:46;8.07;;;5.93;;
47429;SDS011;33181;49.246;7.372;2022-08-14T06:43:13;7.33;;;6.63;;
47429;SDS011;33181;49.246;7.372;2022-08-14T06:45:41;7.27;;;6.60;;
47429;SDS011;33181;49.246;7.372;2022-08-14T06:48:17;8.53;;;6.90;;
47429;SDS011;33181;49.246;7.372;2022-08-14T06:50:45;8.90;;;6.17;;
47429;SDS011;33181;49.246;7.372;2022-08-14T06:53:12;8.80;;;7.17;;
47429;SDS011;33181;49.246;7.372;2022-08-14T06:55:42;6.70;;;6.00;;
47429;SDS011;33181;49.246;7.372;2022-08-14T06:58:12;6.90;;;6.30;;
47429;SDS011;33181;49.246;7.372;2022-08-14T07:00:40;8.03;;;6.40;;
47429;SDS011;33181;49.246;7.372;2022-08-14T07:03:27;7.67;;;6.30;;
47429;SDS011;33181;49.246;7.372;2022-08-14T07:06:13;7.20;;;6.50;;
47429;SDS011;33181;49.246;7.372;2022-08-14T07:08:39;8.33;;;6.40;;
47429;SDS011;33181;49.246;7.372;2022-08-14T07:11:06;9.00;;;6.80;;
47429;SDS011;33181;49.246;7.372;2022-08-14T07:13:32;7.47;;;6.60;;
47429;SDS011;33181;49.246;7.372;2022-08-14T07:15:58;7.83;;;7.00;;
47429;SDS011;33181;49.246;7.372;2022-08-14T07:18:33;7.97;;;7.00;;
47429;SDS011;33181;49.246;7.372;2022-08-14T07:21:00;7.43;;;6.73;;
47429;SDS011;33181;49.246;7.372;2022-08-14T07:23:28;10.53;;;7.23;;
47429;SDS011;33181;49.246;7.372;2022-08-14T07:25:55;10.20;;;7.47;;
47429;SDS011;33181;49.246;7.372;2022-08-14T07:28:27;7.57;;;6.87;;
47429;SDS011;33181;49.246;7.372;2022-08-14T07:31:03;7.63;;;6.80;;
47429;SDS011;33181;49.246;7.372;2022-08-14T07:33:33;7.23;;;6.53;;
47429;SDS011;33181;49.246;7.372;2022-08-14T07:36:04;8.00;;;6.20;;
47429;SDS011;33181;49.246;7.372;2022-08-14T07:38:33;7.00;;;6.40;;
47429;SDS011;33181;49.246;7.372;2022-08-14T07:41:00;7.63;;;6.33;;
47429;SDS011;33181;49.246;7.372;2022-08-14T07:43:26;6.70;;;6.00;;
47429;SDS011;33181;49.246;7.372;2022-08-14T07:45:52;6.37;;;5.60;;
47429;SDS011;33181;49.246;7.372;2022-08-14T07:48:18;7.10;;;6.10;;
47429;SDS011;33181;49.246;7.372;2022-08-14T07:50:44;7.30;;;6.43;;
47429;SDS011;33181;49.246;7.372;2022-08-14T07:53:14;10.40;;;6.60;;
47429;SDS011;33181;49.246;7.372;2022-08-14T07:55:41;6.30;;;5.47;;
47429;SDS011;33181;49.246;7.372;2022-08-14T07:58:09;6.20;;;5.67;;
47429;SDS011;33181;49.246;7.372;2022-08-14T08:00:34;6.60;;;6.00;;
47429;SDS011;33181;49.246;7.372;2022-08-14T08:03:00;7.00;;;5.70;;
47429;SDS011;33181;49.246;7.372;2022-08-14T08:05:28;7.20;;;5.77;;
47429;SDS011;33181;49.246;7.372;2022-08-14T08:07:53;5.77;;;5.27;;
47429;SDS011;33181;49.246;7.372;2022-08-14T08:10:20;6.27;;;5.67;;
47429;SDS011;33181;49.246;7.372;2022-08-14T08:12:57;10.83;;;5.53;;
47429;SDS011;33181;49.246;7.372;2022-08-14T08:15:38;5.70;;;5.20;;
47429;SDS011;33181;49.246;7.372;2022-08-14T08:18:08;5.60;;;4.83;;
47429;SDS011;33181;49.246;7.372;2022-08-14T08:20:36;5.37;;;4.97;;
47429;SDS011;33181;49.246;7.372;2022-08-14T08:23:05;5.60;;;5.10;;
47429;SDS011;33181;49.246;7.372;2022-08-14T08:25:35;5.20;;;4.80;;
47429;SDS011;33181;49.246;7.372;2022-08-14T08:30:35;5.30;;;4.80;;
47429;SDS011;33181;49.246;7.372;2022-08-14T08:33:03;5.97;;;5.20;;
47429;SDS011;33181;49.246;7.372;2022-08-14T08:35:31;5.63;;;4.90;;
47429;SDS011;33181;49.246;7.372;2022-08-14T08:38:01;4.97;;;4.57;;
47429;SDS011;33181;49.246;7.372;2022-08-14T08:40:37;4.80;;;4.40;;
47429;SDS011;33181;49.246;7.372;2022-08-14T08:45:42;4.83;;;4.33;;
47429;SDS011;33181;49.246;7.372;2022-08-14T08:48:07;4.60;;;4.20;;
47429;SDS011;33181;49.246;7.372;2022-08-14T08:50:34;5.37;;;4.30;;
47429;SDS011;33181;49.246;7.372;2022-08-14T08:53:04;6.00;;;4.80;;
47429;SDS011;33181;49.246;7.372;2022-08-14T08:55:38;4.00;;;3.70;;
47429;SDS011;33181;49.246;7.372;2022-08-14T08:58:09;4.60;;;4.20;;
47429;SDS011;33181;49.246;7.372;2022-08-14T09:00:47;5.23;;;3.93;;
47429;SDS011;33181;49.246;7.372;2022-08-14T09:03:26;4.07;;;3.70;;
47429;SDS011;33181;49.246;7.372;2022-08-14T09:05:55;5.37;;;4.30;;
47429;SDS011;33181;49.246;7.372;2022-08-14T09:08:26;4.50;;;4.10;;
47429;SDS011;33181;49.246;7.372;2022-08-14T09:11:05;4.97;;;4.47;;
47429;SDS011;33181;49.246;7.372;2022-08-14T09:13:33;4.97;;;4.50;;
47429;SDS011;33181;49.246;7.372;2022-08-14T09:16:00;5.20;;;4.10;;
47429;SDS011;33181;49.246;7.372;2022-08-14T09:18:27;4.90;;;4.40;;
47429;SDS011;33181;49.246;7.372;2022-08-14T09:20:54;5.10;;;4.20;;
47429;SDS011;33181;49.246;7.372;2022-08-14T09:23:21;5.50;;;4.10;;
47429;SDS011;33181;49.246;7.372;2022-08-14T09:25:48;4.73;;;4.33;;
47429;SDS011;33181;49.246;7.372;2022-08-14T09:28:16;4.77;;;4.37;;
47429;SDS011;33181;49.246;7.372;2022-08-14T09:30:53;4.80;;;4.40;;
47429;SDS011;33181;49.246;7.372;2022-08-14T09:39:35;5.60;;;5.10;;
47429;SDS011;33181;49.246;7.372;2022-08-14T09:42:27;6.90;;;6.20;;
47429;SDS011;33181;49.246;7.372;2022-08-14T09:45:12;9.07;;;6.90;;
47429;SDS011;33181;49.246;7.372;2022-08-14T09:47:56;8.47;;;7.57;;
47429;SDS011;33181;49.246;7.372;2022-08-14T09:53:03;6.83;;;6.13;;
47429;SDS011;33181;49.246;7.372;2022-08-14T09:55:32;6.00;;;5.40;;
47429;SDS011;33181;49.246;7.372;2022-08-14T09:58:15;5.43;;;4.93;;
47429;SDS011;33181;49.246;7.372;2022-08-14T10:00:47;5.30;;;4.80;;
47429;SDS011;33181;49.246;7.372;2022-08-14T10:03:35;6.23;;;4.63;;
47429;SDS011;33181;49.246;7.372;2022-08-14T10:06:17;5.40;;;4.97;;
47429;SDS011;33181;49.246;7.372;2022-08-14T10:08:49;5.00;;;4.50;;
47429;SDS011;33181;49.246;7.372;2022-08-14T10:11:28;5.33;;;4.77;;
47429;SDS011;33181;49.246;7.372;2022-08-14T10:14:12;5.13;;;4.50;;
47429;SDS011;33181;49.246;7.372;2022-08-14T10:16:44;5.10;;;4.60;;
47429;SDS011;33181;49.246;7.372;2022-08-14T10:19:15;5.40;;;4.77;;
47429;SDS011;33181;49.246;7.372;2022-08-14T10:24:32;5.30;;;4.80;;
47429;SDS011;33181;49.246;7.372;2022-08-14T10:27:19;5.00;;;4.60;;
47429;SDS011;33181;49.246;7.372;2022-08-14T10:29:49;5.40;;;4.90;;
47429;SDS011;33181;49.246;7.372;2022-08-14T10:32:18;7.60;;;4.87;;
47429;SDS011;33181;49.246;7.372;2022-08-14T10:34:47;5.37;;;4.87;;
47429;SDS011;33181;49.246;7.372;2022-08-14T10:37:14;5.30;;;4.80;;
47429;SDS011;33181;49.246;7.372;2022-08-14T10:39:56;4.80;;;4.40;;
47429;SDS011;33181;49.246;7.372;2022-08-14T10:42:33;4.97;;;4.53;;
47429;SDS011;33181;49.246;7.372;2022-08-14T10:45:02;6.33;;;4.80;;
47429;SDS011;33181;49.246;7.372;2022-08-14T10:47:45;4.90;;;4.40;;
47429;SDS011;33181;49.246;7.372;2022-08-14T10:50:13;5.10;;;4.60;;
47429;SDS011;33181;49.246;7.372;2022-08-14T10:52:40;5.53;;;5.03;;
47429;SDS011;33181;49.246;7.372;2022-08-14T10:55:09;5.30;;;4.80;;
47429;SDS011;33181;49.246;7.372;2022-08-14T10:57:47;5.70;;;4.70;;
47429;SDS011;33181;49.246;7.372;2022-08-14T11:00:16;5.10;;;4.60;;
47429;SDS011;33181;49.246;7.372;2022-08-14T11:02:58;10.07;;;4.80;;
47429;SDS011;33181;49.246;7.372;2022-08-14T11:05:36;5.40;;;4.90;;
47429;SDS011;33181;49.246;7.372;2022-08-14T11:08:17;4.60;;;4.20;;
47429;SDS011;33181;49.246;7.372;2022-08-14T11:10:57;4.73;;;4.33;;
47429;SDS011;33181;49.246;7.372;2022-08-14T11:13:26;4.63;;;4.23;;
47429;SDS011;33181;49.246;7.372;2022-08-14T11:15:56;4.70;;;4.30;;
47429;SDS011;33181;49.246;7.372;2022-08-14T11:18:25;5.00;;;4.00;;
47429;SDS011;33181;49.246;7.372;2022-08-14T11:20:55;5.20;;;4.33;;
47429;SDS011;33181;49.246;7.372;2022-08-14T11:23:27;5.37;;;4.80;;
47429;SDS011;33181;49.246;7.372;2022-08-14T11:25:56;6.70;;;4.53;;
47429;SDS011;33181;49.246;7.372;2022-08-14T11:28:25;9.73;;;4.70;;
47429;SDS011;33181;49.246;7.372;2022-08-14T11:30:56;4.90;;;4.43;;
47429;SDS011;33181;49.246;7.372;2022-08-14T11:33:23;5.50;;;4.70;;
47429;SDS011;33181;49.246;7.372;2022-08-14T11:35:54;4.50;;;4.10;;
47429;SDS011;33181;49.246;7.372;2022-08-14T11:38:24;4.70;;;4.20;;
47429;SDS011;33181;49.246;7.372;2022-08-14T11:40:52;4.30;;;3.97;;
47429;SDS011;33181;49.246;7.372;2022-08-14T11:43:21;4.67;;;4.13;;
47429;SDS011;33181;49.246;7.372;2022-08-14T11:45:49;4.30;;;3.90;;
47429;SDS011;33181;49.246;7.372;2022-08-14T11:48:16;4.73;;;3.90;;
47429;SDS011;33181;49.246;7.372;2022-08-14T11:50:48;3.77;;;3.47;;
47429;SDS011;33181;49.246;7.372;2022-08-14T11:53:36;4.50;;;4.10;;
47429;SDS011;33181;49.246;7.372;2022-08-14T11:56:03;4.40;;;4.00;;
47429;SDS011;33181;49.246;7.372;2022-08-14T11:58:34;6.40;;;4.13;;
47429;SDS011;33181;49.246;7.372;2022-08-14T12:01:03;4.80;;;4.40;;
47429;SDS011;33181;49.246;7.372;2022-08-14T12:06:09;5.23;;;3.97;;
47429;SDS011;33181;49.246;7.372;2022-08-14T12:08:37;4.80;;;4.40;;
47429;SDS011;33181;49.246;7.372;2022-08-14T12:11:05;4.73;;;4.33;;
47429;SDS011;33181;49.246;7.372;2022-08-14T12:13:32;4.53;;;4.13;;
47429;SDS011;33181;49.246;7.372;2022-08-14T12:16:03;4.33;;;3.70;;
47429;SDS011;33181;49.246;7.372;2022-08-14T12:18:33;4.70;;;4.10;;
47429;SDS011;33181;49.246;7.372;2022-08-14T12:21:22;4.47;;;4.07;;
47429;SDS011;33181;49.246;7.372;2022-08-14T12:24:03;4.50;;;4.10;;
47429;SDS011;33181;49.246;7.372;2022-08-14T12:26:31;4.23;;;3.93;;
47429;SDS011;33181;49.246;7.372;2022-08-14T12:29:08;4.50;;;4.10;;
47429;SDS011;33181;49.246;7.372;2022-08-14T12:31:38;4.33;;;3.93;;
47429;SDS011;33181;49.246;7.372;2022-08-14T12:34:11;6.43;;;3.67;;
47429;SDS011;33181;49.246;7.372;2022-08-14T12:36:41;4.77;;;4.03;;
47429;SDS011;33181;49.246;7.372;2022-08-14T12:39:20;4.53;;;3.90;;
47429;SDS011;33181;49.246;7.372;2022-08-14T12:41:51;4.23;;;3.93;;
47429;SDS011;33181;49.246;7.372;2022-08-14T12:44:29;4.30;;;3.90;;
47429;SDS011;33181;49.246;7.372;2022-08-14T12:47:08;4.20;;;3.80;;
47429;SDS011;33181;49.246;7.372;2022-08-14T12:49:48;3.80;;;3.50;;
47429;SDS011;33181;49.246;7.372;2022-08-14T12:52:25;3.90;;;3.60;;
47429;SDS011;33181;49.246;7.372;2022-08-14T12:55:04;3.83;;;3.53;;
47429;SDS011;33181;49.246;7.372;2022-08-14T13:02:46;4.50;;;3.63;;
47429;SDS011;33181;49.246;7.372;2022-08-14T13:05:15;9.93;;;3.67;;
47429;SDS011;33181;49.246;7.372;2022-08-14T13:07:43;4.20;;;3.80;;
47429;SDS011;33181;49.246;7.372;2022-08-14T13:10:09;4.57;;;4.17;;
47429;SDS011;33181;49.246;7.372;2022-08-14T13:12:41;7.63;;;4.40;;
47429;SDS011;33181;49.246;7.372;2022-08-14T13:15:09;4.90;;;4.50;;
47429;SDS011;33181;49.246;7.372;2022-08-14T13:17:41;5.10;;;4.60;;
47429;SDS011;33181;49.246;7.372;2022-08-14T13:20:16;4.73;;;4.33;;
47429;SDS011;33181;49.246;7.372;2022-08-14T13:22:46;4.40;;;4.00;;
47429;SDS011;33181;49.246;7.372;2022-08-14T13:25:13;4.23;;;3.93;;
47429;SDS011;33181;49.246;7.372;2022-08-14T13:27:44;4.07;;;3.77;;
47429;SDS011;33181;49.246;7.372;2022-08-14T13:30:13;4.50;;;3.83;;
47429;SDS011;33181;49.246;7.372;2022-08-14T13:32:42;4.10;;;3.80;;
47429;SDS011;33181;49.246;7.372;2022-08-14T13:35:12;4.37;;;3.97;;
47429;SDS011;33181;49.246;7.372;2022-08-14T13:37:41;5.57;;;3.60;;
47429;SDS011;33181;49.246;7.372;2022-08-14T13:40:09;4.57;;;4.17;;
47429;SDS011;33181;49.246;7.372;2022-08-14T13:42:40;4.43;;;4.10;;
47429;SDS011;33181;49.246;7.372;2022-08-14T13:45:08;4.03;;;3.73;;
47429;SDS011;33181;49.246;7.372;2022-08-14T13:47:36;4.10;;;3.70;;
47429;SDS011;33181;49.246;7.372;2022-08-14T13:50:04;4.17;;;3.80;;
47429;SDS011;33181;49.246;7.372;2022-08-14T13:55:28;4.20;;;3.90;;
47429;SDS011;33181;49.246;7.372;2022-08-14T13:57:59;5.47;;;3.90;;
47429;SDS011;33181;49.246;7.372;2022-08-14T14:00:26;4.63;;;4.00;;
47429;SDS011;33181;49.246;7.372;2022-08-14T14:02:53;4.50;;;3.50;;
47429;SDS011;33181;49.246;7.372;2022-08-14T14:05:22;5.60;;;3.70;;
47429;SDS011;33181;49.246;7.372;2022-08-14T14:07:50;4.13;;;3.73;;
47429;SDS011;33181;49.246;7.372;2022-08-14T14:10:18;10.00;;;4.67;;
47429;SDS011;33181;49.246;7.372;2022-08-14T14:12:47;4.43;;;4.03;;
47429;SDS011;33181;49.246;7.372;2022-08-14T14:15:18;3.77;;;3.37;;
47429;SDS011;33181;49.246;7.372;2022-08-14T14:17:45;4.40;;;4.00;;
47429;SDS011;33181;49.246;7.372;2022-08-14T14:20:15;3.60;;;3.30;;
47429;SDS011;33181;49.246;7.372;2022-08-14T14:22:46;4.57;;;3.80;;
47429;SDS011;33181;49.246;7.372;2022-08-14T14:25:14;10.40;;;5.13;;
47429;SDS011;33181;49.246;7.372;2022-08-14T14:27:43;4.40;;;3.50;;
47429;SDS011;33181;49.246;7.372;2022-08-14T14:30:11;4.43;;;3.90;;
47429;SDS011;33181;49.246;7.372;2022-08-14T14:32:39;4.87;;;3.67;;
47429;SDS011;33181;49.246;7.372;2022-08-14T14:35:11;10.30;;;3.63;;
47429;SDS011;33181;49.246;7.372;2022-08-14T14:37:43;5.87;;;3.90;;
47429;SDS011;33181;49.246;7.372;2022-08-14T14:40:14;3.67;;;3.37;;
47429;SDS011;33181;49.246;7.372;2022-08-14T14:42:48;4.00;;;3.70;;
47429;SDS011;33181;49.246;7.372;2022-08-14T14:45:20;5.30;;;4.10;;
47429;SDS011;33181;49.246;7.372;2022-08-14T14:47:48;5.50;;;3.73;;
47429;SDS011;33181;49.246;7.372;2022-08-14T14:50:18;5.13;;;3.80;;
47429;SDS011;33181;49.246;7.372;2022-08-14T14:52:47;4.10;;;3.80;;
47429;SDS011;33181;49.246;7.372;2022-08-14T14:55:15;3.93;;;3.50;;
47429;SDS011;33181;49.246;7.372;2022-08-14T14:57:42;3.70;;;3.40;;
47429;SDS011;33181;49.246;7.372;2022-08-14T15:00:10;4.10;;;3.70;;
47429;SDS011;33181;49.246;7.372;2022-08-14T15:02:46;4.30;;;3.90;;
47429;SDS011;33181;49.246;7.372;2022-08-14T15:05:15;3.83;;;3.50;;
47429;SDS011;33181;49.246;7.372;2022-08-14T15:07:44;4.50;;;4.10;;
47429;SDS011;33181;49.246;7.372;2022-08-14T15:10:13;4.17;;;3.77;;
47429;SDS011;33181;49.246;7.372;2022-08-14T15:12:42;4.27;;;3.90;;
47429;SDS011;33181;49.246;7.372;2022-08-14T15:15:09;4.30;;;3.90;;
47429;SDS011;33181;49.246;7.372;2022-08-14T15:17:37;4.20;;;3.67;;
47429;SDS011;33181;49.246;7.372;2022-08-14T15:20:05;4.27;;;3.80;;
47429;SDS011;33181;49.246;7.372;2022-08-14T15:22:35;4.17;;;3.70;;
47429;SDS011;33181;49.246;7.372;2022-08-14T15:25:02;4.23;;;3.93;;
47429;SDS011;33181;49.246;7.372;2022-08-14T15:27:29;4.27;;;3.87;;
47429;SDS011;33181;49.246;7.372;2022-08-14T15:29:55;4.43;;;4.03;;
47429;SDS011;33181;49.246;7.372;2022-08-14T15:32:22;4.90;;;3.40;;
47429;SDS011;33181;49.246;7.372;2022-08-14T15:34:48;4.07;;;3.70;;